createdAt,value
2017-10-04T00:04:47.526Z,80.30
2017-10-04T00:07:15.702Z,79.50
2017-10-04T00:09:43.803Z,79.70
2017-10-04T00:12:10.092Z,79.70
2017-10-04T00:14:37.060Z,79.60
2017-10-04T00:17:03.610Z,79.60
2017-10-04T00:19:31.248Z,79.60
2017-10-04T00:21:58.490Z,79.60
2017-10-04T00:24:25.955Z,79.90
2017-10-04T00:26:52.912Z,80.10
2017-10-04T00:29:21.620Z,80.10
2017-10-04T00:31:47.839Z,80.30
2017-10-04T00:34:14.551Z,80.10
2017-10-04T00:36:41.690Z,79.80
2017-10-04T00:39:09.334Z,79.90
2017-10-04T00:41:36.126Z,80.60
2017-10-04T00:44:03.235Z,80.00
2017-10-04T00:46:31.038Z,80.00
2017-10-04T00:48:57.879Z,79.90
2017-10-04T00:51:24.741Z,79.80
2017-10-04T00:53:52.765Z,79.70
2017-10-04T00:56:20.829Z,79.80
2017-10-04T00:58:48.282Z,79.80
2017-10-04T01:01:16.664Z,80.10
2017-10-04T01:03:44.676Z,79.80
2017-10-04T01:06:11.138Z,79.80
2017-10-04T01:08:38.691Z,80.00
2017-10-04T01:11:04.922Z,79.90
2017-10-04T01:13:32.175Z,79.70
2017-10-04T01:15:59.388Z,79.90
2017-10-04T01:18:26.523Z,80.00
2017-10-04T01:20:52.793Z,80.10
2017-10-04T01:23:19.302Z,80.20
2017-10-04T01:25:46.223Z,80.20
2017-10-04T01:28:13.805Z,80.20
2017-10-04T01:30:40.451Z,80.20
2017-10-04T01:33:08.626Z,80.00
2017-10-04T01:35:36.632Z,80.60
2017-10-04T01:38:02.845Z,79.80
2017-10-04T01:40:29.268Z,79.70
2017-10-04T01:42:55.512Z,79.70
2017-10-04T01:45:23.461Z,79.90
2017-10-04T01:47:51.466Z,79.70
2017-10-04T01:50:17.698Z,79.70
2017-10-04T01:52:44.967Z,79.60
2017-10-04T01:55:12.492Z,79.70
2017-10-04T01:57:39.209Z,79.70
2017-10-04T02:00:06.001Z,79.60
2017-10-04T02:02:32.960Z,79.60
2017-10-04T02:04:59.802Z,79.60
2017-10-04T02:07:26.609Z,79.70
2017-10-04T02:09:53.131Z,79.00
2017-10-04T02:12:20.691Z,79.00
2017-10-04T02:14:46.893Z,78.90
2017-10-04T02:17:13.096Z,79.20
2017-10-04T02:19:39.846Z,79.30
2017-10-04T02:22:07.014Z,79.50
2017-10-04T02:24:33.825Z,79.10
2017-10-04T02:27:01.066Z,79.40
2017-10-04T02:29:29.476Z,80.10
2017-10-04T02:31:57.500Z,79.30
2017-10-04T02:34:24.989Z,79.60
2017-10-04T02:36:53.024Z,79.60
2017-10-04T02:39:20.673Z,79.80
2017-10-04T02:41:48.243Z,79.60
2017-10-04T02:44:14.457Z,80.30
2017-10-04T02:46:40.652Z,81.50
2017-10-04T02:49:07.720Z,81.50
2017-10-04T02:51:34.480Z,80.00
2017-10-04T02:54:00.688Z,80.20
2017-10-04T02:56:26.918Z,80.10
2017-10-04T02:58:53.615Z,79.80
2017-10-04T03:01:19.822Z,80.30
2017-10-04T03:03:48.324Z,79.90
2017-10-04T03:06:15.097Z,80.80
2017-10-04T03:08:41.191Z,79.50
2017-10-04T03:11:07.269Z,79.60
2017-10-04T03:13:33.388Z,79.90
2017-10-04T03:15:59.466Z,80.00
2017-10-04T03:18:25.563Z,79.90
2017-10-04T03:20:53.253Z,78.80
2017-10-04T03:23:19.328Z,78.80
2017-10-04T03:25:45.408Z,78.60
2017-10-04T03:28:12.452Z,78.70
2017-10-04T03:30:38.929Z,79.00
2017-10-04T03:33:04.991Z,78.90
2017-10-04T03:35:31.064Z,79.50
2017-10-04T03:37:57.731Z,78.90
2017-10-04T03:40:24.539Z,79.60
2017-10-04T03:42:50.636Z,79.10
2017-10-04T03:45:17.623Z,78.60
2017-10-04T03:47:44.910Z,77.80
2017-10-04T03:50:11.054Z,77.90
2017-10-04T03:52:37.106Z,78.20
2017-10-04T03:55:03.811Z,77.80
2017-10-04T04:07:15.945Z,78.00
2017-10-04T04:09:42.036Z,77.00
2017-10-04T04:12:08.122Z,76.80
2017-10-04T04:14:34.169Z,77.00
2017-10-04T04:17:00.268Z,77.10
2017-10-04T04:19:27.003Z,76.90
2017-10-04T04:21:53.821Z,76.90
2017-10-04T04:24:19.927Z,77.00
2017-10-04T04:26:46.180Z,77.10
2017-10-04T04:29:13.024Z,76.90
2017-10-04T04:31:40.418Z,76.80
2017-10-04T04:34:07.340Z,76.80
2017-10-04T04:36:33.814Z,76.70
2017-10-04T04:38:59.945Z,76.30
2017-10-04T04:41:27.604Z,76.30
2017-10-04T04:43:54.210Z,76.30
2017-10-04T04:46:20.910Z,76.30
2017-10-04T04:48:46.991Z,76.50
2017-10-04T04:51:13.644Z,77.30
2017-10-04T04:53:39.728Z,76.70
2017-10-04T04:56:05.827Z,76.40
2017-10-04T04:58:32.667Z,76.20
2017-10-04T05:00:59.526Z,76.30
2017-10-04T05:03:26.427Z,75.70
2017-10-04T05:05:52.553Z,75.70
2017-10-04T05:08:19.278Z,76.00
2017-10-04T05:10:45.417Z,76.20
2017-10-04T05:13:11.508Z,77.10
2017-10-04T05:15:37.591Z,76.60
2017-10-04T05:18:03.699Z,76.20
2017-10-04T05:20:29.780Z,76.00
2017-10-04T05:22:56.887Z,76.40
2017-10-04T05:25:23.067Z,76.30
2017-10-04T05:27:49.155Z,76.40
2017-10-04T05:30:15.980Z,76.50
2017-10-04T05:32:42.080Z,76.50
2017-10-04T05:35:08.191Z,76.80
2017-10-04T05:37:34.251Z,76.60
2017-10-04T05:40:00.779Z,76.40
2017-10-04T05:42:26.876Z,76.90
2017-10-04T05:44:53.551Z,77.00
2017-10-04T05:47:19.636Z,77.10
2017-10-04T05:49:45.707Z,76.70
2017-10-04T05:52:12.991Z,77.60
2017-10-04T05:54:39.711Z,76.90
2017-10-04T05:57:06.529Z,77.00
2017-10-04T05:59:32.600Z,77.00
2017-10-04T06:01:58.673Z,77.00
2017-10-04T06:04:25.423Z,76.90
2017-10-04T06:06:52.279Z,77.30
2017-10-04T06:09:19.116Z,77.30
2017-10-04T06:11:45.940Z,77.80
2017-10-04T06:14:12.048Z,77.70
2017-10-04T06:16:39.177Z,77.90
2017-10-04T06:19:06.582Z,78.70
2017-10-04T06:21:33.392Z,78.60
2017-10-04T06:23:59.693Z,78.50
2017-10-04T06:26:26.976Z,78.10
2017-10-04T06:28:53.578Z,78.60
2017-10-04T06:31:20.904Z,78.30
2017-10-04T06:33:48.428Z,78.10
2017-10-04T06:36:14.802Z,78.00
2017-10-04T06:38:41.301Z,79.00
2017-10-04T06:41:08.335Z,78.40
2017-10-04T06:43:35.823Z,78.40
2017-10-04T06:46:03.418Z,79.50
2017-10-04T06:48:30.959Z,79.50
2017-10-04T06:50:57.199Z,80.00
2017-10-04T06:53:24.044Z,79.60
2017-10-04T06:55:57.476Z,79.30
2017-10-04T06:58:25.657Z,80.00
2017-10-04T07:00:52.517Z,79.70
2017-10-04T07:03:18.990Z,79.90
2017-10-04T07:05:45.903Z,80.30
2017-10-04T07:08:12.950Z,80.00
2017-10-04T07:10:40.311Z,79.80
2017-10-04T07:13:07.736Z,79.80
2017-10-04T07:15:35.495Z,79.70
2017-10-04T07:18:01.762Z,79.70
2017-10-04T07:20:28.733Z,80.80
2017-10-04T07:22:54.917Z,80.80
2017-10-04T07:25:21.127Z,79.10
2017-10-04T07:27:48.007Z,79.50
2017-10-04T07:30:15.574Z,78.60
2017-10-04T07:32:41.803Z,78.60
2017-10-04T07:35:08.886Z,79.00
2017-10-04T07:37:36.001Z,78.40
2017-10-04T07:40:03.191Z,78.70
2017-10-04T07:42:29.386Z,78.80
2017-10-04T07:44:56.254Z,78.60
2017-10-04T07:47:22.506Z,77.00
2017-10-04T07:49:49.219Z,77.90
2017-10-04T07:52:15.949Z,77.70
2017-10-04T07:54:42.970Z,78.00
2017-10-04T07:57:10.788Z,78.00
2017-10-04T07:59:37.403Z,78.30
2017-10-04T08:02:04.437Z,78.50
2017-10-04T08:04:30.652Z,78.50
2017-10-04T08:06:57.863Z,76.60
2017-10-04T08:09:25.553Z,77.00
2017-10-04T08:11:52.510Z,76.90
2017-10-04T08:14:18.855Z,76.90
2017-10-04T08:16:45.168Z,76.60
2017-10-04T08:19:11.896Z,77.30
2017-10-04T08:21:39.400Z,77.00
2017-10-04T08:24:05.659Z,77.00
2017-10-04T08:26:31.990Z,77.80
2017-10-04T08:28:58.255Z,79.10
2017-10-04T08:31:24.986Z,78.80
2017-10-04T08:33:51.170Z,78.40
2017-10-04T08:36:17.401Z,78.70
2017-10-04T08:38:44.384Z,78.10
2017-10-04T08:41:11.130Z,79.00
2017-10-04T08:43:37.762Z,79.10
2017-10-04T08:46:04.467Z,77.30
2017-10-04T08:48:37.565Z,75.90
2017-10-04T08:51:04.342Z,75.80
2017-10-04T08:53:31.064Z,76.30
2017-10-04T08:55:58.243Z,73.60
2017-10-04T08:58:25.079Z,73.60
2017-10-04T09:00:52.241Z,74.40
2017-10-04T09:03:18.688Z,74.20
2017-10-04T09:05:48.271Z,75.10
2017-10-04T09:08:15.068Z,75.00
2017-10-04T09:10:42.707Z,70.90
2017-10-04T09:13:09.249Z,70.90
2017-10-04T09:15:36.242Z,69.10
2017-10-04T09:18:02.778Z,69.10
2017-10-04T09:20:29.193Z,69.90
2017-10-04T09:22:56.589Z,69.90
2017-10-04T09:25:23.608Z,69.30
2017-10-04T09:27:50.100Z,69.30
2017-10-04T09:30:17.345Z,70.40
2017-10-04T09:32:45.520Z,71.00
2017-10-04T09:35:12.639Z,69.60
2017-10-04T09:37:38.864Z,69.60
2017-10-04T09:40:05.474Z,68.00
2017-10-04T09:42:33.305Z,69.60
2017-10-04T09:44:59.859Z,69.60
2017-10-04T09:47:27.465Z,70.90
2017-10-04T09:49:53.811Z,70.90
2017-10-04T09:52:20.275Z,68.60
2017-10-04T09:54:47.933Z,67.60
2017-10-04T09:57:14.463Z,67.50
2017-10-04T09:59:41.447Z,67.00
2017-10-04T10:02:07.685Z,67.10
2017-10-04T10:04:33.908Z,68.10
2017-10-04T10:07:00.274Z,67.50
2017-10-04T10:09:27.938Z,65.60
2017-10-04T10:11:55.385Z,66.90
2017-10-04T10:14:23.465Z,68.60
2017-10-04T10:16:53.884Z,68.60
2017-10-04T10:19:18.358Z,68.50
2017-10-04T10:21:45.290Z,68.30
2017-10-04T10:24:12.733Z,66.50
2017-10-04T10:26:39.141Z,66.50
2017-10-04T10:29:06.113Z,66.70
2017-10-04T10:31:32.362Z,66.60
2017-10-04T10:33:59.222Z,66.40
2017-10-04T10:36:25.483Z,65.70
2017-10-04T10:38:52.796Z,67.20
2017-10-04T10:41:19.125Z,66.10
2017-10-04T10:43:46.182Z,65.50
2017-10-04T10:46:13.368Z,66.00
2017-10-04T10:48:40.872Z,66.10
2017-10-04T10:51:07.564Z,66.00
2017-10-04T10:53:35.566Z,65.20
2017-10-04T10:56:03.727Z,66.30
2017-10-04T10:58:30.066Z,66.20
2017-10-04T11:00:56.817Z,64.10
2017-10-04T11:03:23.090Z,63.90
2017-10-04T11:05:49.552Z,64.10
2017-10-04T11:08:16.818Z,62.10
2017-10-04T11:10:43.873Z,60.00
2017-10-04T11:13:11.138Z,59.90
2017-10-04T11:15:37.378Z,61.90
2017-10-04T11:18:05.137Z,62.90
2017-10-04T11:20:31.369Z,61.30
2017-10-04T11:22:57.569Z,62.00
2017-10-04T11:25:23.895Z,63.30
2017-10-04T11:27:50.119Z,64.00
2017-10-04T11:30:16.869Z,61.10
2017-10-04T11:32:43.736Z,61.80
2017-10-04T11:35:09.977Z,60.40
2017-10-04T11:37:36.747Z,60.30
2017-10-04T11:40:04.665Z,59.10
2017-10-04T11:42:31.988Z,58.20
2017-10-04T11:44:59.352Z,59.00
2017-10-04T11:47:25.570Z,59.00
2017-10-04T11:49:51.773Z,60.10
2017-10-04T11:52:19.111Z,58.30
2017-10-04T11:54:45.305Z,58.30
2017-10-04T11:57:12.050Z,58.10
2017-10-04T11:59:39.663Z,55.80
2017-10-04T12:02:05.991Z,55.80
2017-10-04T12:04:32.951Z,57.30
2017-10-04T12:06:59.594Z,57.40
2017-10-04T12:09:27.482Z,57.60
2017-10-04T12:11:55.074Z,57.90
2017-10-04T12:14:22.088Z,56.00
2017-10-04T12:16:48.424Z,55.90
2017-10-04T12:19:14.938Z,55.80
2017-10-04T12:21:41.984Z,56.90
2017-10-04T12:24:08.489Z,56.90
2017-10-04T12:26:35.473Z,57.00
2017-10-04T12:29:02.788Z,57.00
2017-10-04T12:31:30.302Z,56.60
2017-10-04T12:33:56.527Z,56.60
2017-10-04T12:36:22.744Z,56.90
2017-10-04T12:38:49.482Z,58.20
2017-10-04T12:41:16.724Z,58.00
2017-10-04T12:43:43.838Z,56.00
2017-10-04T12:46:11.125Z,57.30
2017-10-04T12:48:38.307Z,57.20
2017-10-04T12:51:04.552Z,55.80
2017-10-04T12:53:31.313Z,56.90
2017-10-04T12:55:58.438Z,55.40
2017-10-04T12:58:25.463Z,55.60
2017-10-04T13:00:51.791Z,55.60
2017-10-04T13:03:19.370Z,55.20
2017-10-04T13:05:46.391Z,55.40
2017-10-04T13:08:12.836Z,55.30
2017-10-04T13:10:39.847Z,56.00
2017-10-04T13:13:06.270Z,56.10
2017-10-04T13:15:33.225Z,55.00
2017-10-04T13:17:59.453Z,54.90
2017-10-04T13:20:26.201Z,54.90
2017-10-04T13:22:52.821Z,54.80
2017-10-04T13:25:19.790Z,54.80
2017-10-04T13:27:46.591Z,54.70
2017-10-04T13:30:13.610Z,55.50
2017-10-04T13:32:40.196Z,55.40
2017-10-04T13:35:07.768Z,56.50
2017-10-04T13:37:35.750Z,56.80
2017-10-04T13:40:02.468Z,56.80
2017-10-04T13:42:28.708Z,57.60
2017-10-04T13:44:55.334Z,56.60
2017-10-04T13:47:23.744Z,57.20
2017-10-04T13:49:50.095Z,57.90
2017-10-04T13:52:16.327Z,57.10
2017-10-04T13:54:43.095Z,56.10
2017-10-04T13:57:10.957Z,54.00
2017-10-04T13:59:37.435Z,54.00
2017-10-04T14:02:05.150Z,54.00
2017-10-04T14:04:32.942Z,52.10
2017-10-04T14:06:59.472Z,52.00
2017-10-04T14:09:27.120Z,53.00
2017-10-04T14:11:54.192Z,51.10
2017-10-04T14:14:20.447Z,51.10
2017-10-04T14:16:48.288Z,50.80
2017-10-04T14:19:14.701Z,50.80
2017-10-04T14:21:41.955Z,51.60
2017-10-04T14:24:08.708Z,51.50
2017-10-04T14:26:34.954Z,51.50
2017-10-04T14:29:01.321Z,50.60
2017-10-04T14:31:28.618Z,53.20
2017-10-04T14:33:55.744Z,53.10
2017-10-04T14:36:22.621Z,53.10
2017-10-04T14:38:49.863Z,50.20
2017-10-04T14:41:16.637Z,51.20
2017-10-04T14:43:43.527Z,52.30
2017-10-04T14:46:10.477Z,52.10
2017-10-04T14:48:36.783Z,52.10
2017-10-04T14:51:03.994Z,52.30
2017-10-04T14:53:31.224Z,51.20
2017-10-04T14:55:58.297Z,51.60
2017-10-04T14:58:25.330Z,52.10
2017-10-04T15:00:51.562Z,52.10
2017-10-04T15:03:18.717Z,52.80
2017-10-04T15:05:44.927Z,50.90
2017-10-04T15:08:11.149Z,51.80
2017-10-04T15:10:37.965Z,51.20
2017-10-04T15:13:04.925Z,52.30
2017-10-04T15:15:31.243Z,52.30
2017-10-04T15:17:58.213Z,52.70
2017-10-04T15:20:24.477Z,52.70
2017-10-04T15:22:50.862Z,51.10
2017-10-04T15:25:17.694Z,51.20
2017-10-04T15:27:44.671Z,51.20
2017-10-04T15:30:10.914Z,51.20
2017-10-04T15:32:37.856Z,51.60
2017-10-04T15:35:04.366Z,51.60
2017-10-04T15:37:30.690Z,51.90
2017-10-04T15:39:56.928Z,52.20
2017-10-04T15:42:23.430Z,51.90
2017-10-04T15:44:49.961Z,52.20
2017-10-04T15:47:24.011Z,52.50
2017-10-04T15:49:50.855Z,52.50
2017-10-04T15:52:17.493Z,52.70
2017-10-04T15:54:45.125Z,53.00
2017-10-04T15:57:12.084Z,52.90
2017-10-04T15:59:38.731Z,52.90
2017-10-04T16:02:06.075Z,53.20
2017-10-04T16:04:33.145Z,53.50
2017-10-04T16:06:59.365Z,53.50
2017-10-04T16:09:26.203Z,53.40
2017-10-04T16:11:53.474Z,54.10
2017-10-04T16:14:19.770Z,54.70
2017-10-04T16:16:46.560Z,54.40
2017-10-04T16:19:13.500Z,54.60
2017-10-04T16:21:40.503Z,54.70
2017-10-04T16:24:06.787Z,54.60
2017-10-04T16:26:34.701Z,54.80
2017-10-04T16:29:00.976Z,55.10
2017-10-04T16:31:27.417Z,55.50
2017-10-04T16:33:54.424Z,55.50
2017-10-04T16:36:21.666Z,55.50
2017-10-04T16:38:47.970Z,55.40
2017-10-04T16:41:15.431Z,56.40
2017-10-04T16:43:42.669Z,56.50
2017-10-04T16:46:10.632Z,56.10
2017-10-04T16:48:37.645Z,57.20
2017-10-04T16:51:03.911Z,56.60
2017-10-04T16:53:31.012Z,58.30
2017-10-04T16:55:57.360Z,57.70
2017-10-04T16:58:23.662Z,58.30
2017-10-04T17:00:50.289Z,57.70
2017-10-04T17:03:16.544Z,58.00
2017-10-04T17:05:43.300Z,58.90
2017-10-04T17:08:10.382Z,60.60
2017-10-04T17:10:38.092Z,60.10
2017-10-04T17:13:04.862Z,60.10
2017-10-04T17:15:31.673Z,62.60
2017-10-04T17:17:58.144Z,64.60
2017-10-04T17:20:25.322Z,64.50
2017-10-04T17:22:52.550Z,65.00
2017-10-04T17:25:19.494Z,64.50
2017-10-04T17:27:46.549Z,64.70
2017-10-04T17:30:14.130Z,65.20
2017-10-04T17:32:41.371Z,65.00
2017-10-04T17:35:08.170Z,64.00
2017-10-04T17:37:35.687Z,68.00
2017-10-04T17:40:03.737Z,68.60
2017-10-04T17:42:32.024Z,68.40
2017-10-04T17:44:58.742Z,68.40
2017-10-04T17:47:24.992Z,68.40
2017-10-04T17:49:51.818Z,68.90
2017-10-04T17:52:18.833Z,69.30
2017-10-04T17:54:45.733Z,69.30
2017-10-04T17:57:12.525Z,66.80
2017-10-04T17:59:39.132Z,67.90
2017-10-04T18:02:05.452Z,66.30
2017-10-04T18:04:31.898Z,67.40
2017-10-04T18:06:59.022Z,66.10
2017-10-04T18:09:25.337Z,66.10
2017-10-04T18:11:52.694Z,69.60
2017-10-04T18:14:18.900Z,69.50
2017-10-04T18:16:45.905Z,67.80
2017-10-04T18:19:13.007Z,67.80
2017-10-04T18:21:39.318Z,70.10
2017-10-04T18:24:06.861Z,70.30
2017-10-04T18:26:33.981Z,68.50
2017-10-04T18:29:00.229Z,68.40
2017-10-04T18:31:26.463Z,67.80
2017-10-04T18:33:52.821Z,68.10
2017-10-04T18:36:19.348Z,67.80
2017-10-04T18:38:47.337Z,66.00
2017-10-04T18:41:13.580Z,66.00
2017-10-04T18:43:40.821Z,67.70
2017-10-04T18:46:07.945Z,67.60
2017-10-04T18:48:35.183Z,67.60
2017-10-04T18:51:01.392Z,70.50
2017-10-04T18:53:28.308Z,69.90
2017-10-04T18:55:55.610Z,67.90
2017-10-04T18:58:23.206Z,67.30
2017-10-04T19:00:51.240Z,69.60
2017-10-04T19:03:18.351Z,69.60
2017-10-04T19:05:45.129Z,69.50
2017-10-04T19:08:12.271Z,70.90
2017-10-04T19:10:38.706Z,72.40
2017-10-04T19:13:06.051Z,70.70
2017-10-04T19:15:33.671Z,70.10
2017-10-04T19:17:59.900Z,70.10
2017-10-04T19:20:27.655Z,70.30
2017-10-04T19:22:55.373Z,71.30
2017-10-04T19:25:22.393Z,70.20
2017-10-04T19:27:49.865Z,70.20
2017-10-04T19:30:16.277Z,68.50
2017-10-04T19:32:43.139Z,68.20
2017-10-04T19:35:10.247Z,68.30
2017-10-04T19:37:37.851Z,68.30
2017-10-04T19:40:04.431Z,69.50
2017-10-04T19:42:32.161Z,70.00
2017-10-04T19:44:59.042Z,69.30
2017-10-04T19:47:27.419Z,72.00
2017-10-04T19:49:54.730Z,70.30
2017-10-04T19:52:21.314Z,70.10
2017-10-04T19:54:48.642Z,69.50
2017-10-04T19:57:14.982Z,69.50
2017-10-04T19:59:42.599Z,69.20
2017-10-04T20:02:10.704Z,70.90
2017-10-04T20:04:37.188Z,70.20
2017-10-04T20:07:04.792Z,70.40
2017-10-04T20:09:31.997Z,70.20
2017-10-04T20:11:58.216Z,70.10
2017-10-04T20:14:25.289Z,69.20
2017-10-04T20:16:52.294Z,70.50
2017-10-04T20:19:19.116Z,70.50
2017-10-04T20:21:45.589Z,69.20
2017-10-04T20:24:13.454Z,70.00
2017-10-04T20:26:40.297Z,70.00
2017-10-04T20:29:08.836Z,69.50
2017-10-04T20:31:35.272Z,69.30
2017-10-04T20:34:01.518Z,70.80
2017-10-04T20:36:28.602Z,71.10
2017-10-04T20:38:54.916Z,71.10
2017-10-04T20:41:21.850Z,70.50
2017-10-04T20:43:48.595Z,69.70
2017-10-04T20:46:14.925Z,69.80
2017-10-04T20:48:41.833Z,70.00
2017-10-04T20:51:08.230Z,70.10
2017-10-04T20:53:35.837Z,71.60
2017-10-04T20:56:02.804Z,71.60
2017-10-04T20:58:29.029Z,71.50
2017-10-04T21:00:55.246Z,72.60
2017-10-04T21:03:23.425Z,71.40
2017-10-04T21:05:50.646Z,71.40
2017-10-04T21:08:17.243Z,72.80
2017-10-04T21:10:43.621Z,75.00
2017-10-04T21:13:11.200Z,74.90
2017-10-04T21:15:38.065Z,74.80
2017-10-04T21:18:04.284Z,75.10
2017-10-04T21:20:31.592Z,75.60
2017-10-04T21:22:58.422Z,73.50
2017-10-04T21:25:24.922Z,74.90
2017-10-04T21:27:51.950Z,72.50
2017-10-04T21:30:18.250Z,72.50
2017-10-04T21:32:45.388Z,72.10
2017-10-04T21:35:14.343Z,71.40
2017-10-04T21:37:40.889Z,71.20
2017-10-04T21:40:09.037Z,71.50
2017-10-04T21:42:35.782Z,71.40
2017-10-04T21:45:02.686Z,71.30
2017-10-04T21:47:29.253Z,72.00
2017-10-04T21:49:56.336Z,73.40
2017-10-04T21:52:22.772Z,73.20
2017-10-04T21:54:50.794Z,72.10
2017-10-04T21:57:18.766Z,71.30
2017-10-04T21:59:45.542Z,71.30
2017-10-04T22:02:12.295Z,71.50
2017-10-04T22:04:38.735Z,71.70
2017-10-04T22:07:06.479Z,72.00
2017-10-04T22:09:32.675Z,73.00
2017-10-04T22:11:58.935Z,72.80
2017-10-04T22:14:26.126Z,72.50
2017-10-04T22:16:53.671Z,72.30
2017-10-04T22:19:19.951Z,71.80
2017-10-04T22:21:46.851Z,72.70
2017-10-04T22:24:13.947Z,73.00
2017-10-04T22:26:41.491Z,73.40
2017-10-04T22:29:07.946Z,73.40
2017-10-04T22:31:34.175Z,73.10
2017-10-04T22:34:01.135Z,73.60
2017-10-04T22:36:27.886Z,73.40
2017-10-04T22:38:55.640Z,73.10
2017-10-04T22:41:22.980Z,73.10
2017-10-04T22:43:49.697Z,74.20
2017-10-04T22:46:16.869Z,76.20
2017-10-04T22:48:43.616Z,75.60
2017-10-04T22:51:10.396Z,74.40
2017-10-04T22:53:37.450Z,74.30
2017-10-04T22:56:05.047Z,74.90
2017-10-04T22:58:32.790Z,74.90
2017-10-04T23:00:59.556Z,73.20
2017-10-04T23:03:26.203Z,72.90
2017-10-04T23:05:54.103Z,74.80
2017-10-04T23:08:21.133Z,74.80
2017-10-04T23:10:48.152Z,74.80
2017-10-04T23:13:14.332Z,74.80
2017-10-04T23:15:42.023Z,75.30
2017-10-04T23:18:10.337Z,74.90
2017-10-04T23:20:37.819Z,74.00
2017-10-04T23:23:04.805Z,74.30
2017-10-04T23:25:32.304Z,74.40
2017-10-04T23:27:59.326Z,74.80
2017-10-04T23:30:27.339Z,73.70
2017-10-04T23:32:53.614Z,73.60
2017-10-04T23:35:20.835Z,72.80
2017-10-04T23:37:49.012Z,73.60
2017-10-04T23:40:16.932Z,74.50
2017-10-04T23:42:44.141Z,74.50
2017-10-04T23:45:10.517Z,74.30
2017-10-04T23:47:37.546Z,73.30
2017-10-04T23:50:04.926Z,73.30
2017-10-04T23:52:32.769Z,73.10
2017-10-04T23:54:59.062Z,73.50
2017-10-04T23:57:26.657Z,73.20
2017-10-04T23:59:52.968Z,73.20
